Time;durP1;ratioP1;P1;durP2;ratioP2;P2;SDS_P1;SDS_P2;PMS_P1;PMS_P2;Temp;Humidity;BMP_temperature;BMP_pressure;BME280_temperature;BME280_humidity;BME280_pressure;Samples;Min_cycle;Max_cycle;Signal;HPM_P1;HPM_P2
2023/12/04 00:00:28;;;;;;;22.30;10.00;;;;;;;5.69;46.57;100271.77;108046;1254;70670;-66
2023/12/04 00:02:55;;;;;;;21.00;10.10;;;;;;;5.73;46.60;100272.40;108169;1254;73319;-66
2023/12/04 00:05:21;;;;;;;21.20;9.60;;;;;;;5.79;46.21;100275.98;108122;1254;61656;-66
2023/12/04 00:07:48;;;;;;;20.00;9.80;;;;;;;5.63;46.39;100282.83;108158;1254;60495;-65
2023/12/04 00:10:15;;;;;;;18.50;9.70;;;;;;;5.47;46.54;100290.36;108170;1256;74364;-65
2023/12/04 00:12:41;;;;;;;21.10;9.80;;;;;;;5.57;46.49;100294.77;108223;1254;70499;-64
2023/12/04 00:15:09;;;;;;;18.80;9.10;;;;;;;5.55;46.53;100300.35;108163;1257;72497;-66
2023/12/04 00:17:39;;;;;;;18.70;9.90;;;;;;;5.60;46.16;100304.99;108193;1254;60878;-66
2023/12/04 00:20:08;;;;;;;23.60;10.30;;;;;;;5.56;46.31;100310.63;108142;1257;60453;-66
2023/12/04 00:22:36;;;;;;;16.90;8.60;;;;;;;5.53;46.41;100316.75;108173;1254;73739;-63
2023/12/04 00:25:04;;;;;;;20.70;10.00;;;;;;;5.47;46.51;100319.80;108144;1254;69517;-66
2023/12/04 00:27:31;;;;;;;19.00;9.30;;;;;;;5.47;46.28;100321.18;108171;1254;72497;-66
2023/12/04 00:29:58;;;;;;;17.70;9.60;;;;;;;5.42;46.47;100327.86;108207;1254;61978;-66
2023/12/04 00:32:25;;;;;;;21.80;10.60;;;;;;;5.44;46.19;100329.75;108166;1254;60457;-66
2023/12/04 00:34:52;;;;;;;17.90;9.10;;;;;;;5.52;46.13;100334.19;107982;1253;74710;-66
2023/12/04 00:37:19;;;;;;;19.10;8.70;;;;;;;5.37;46.29;100336.47;108204;1254;70144;-65
2023/12/04 00:39:45;;;;;;;18.60;9.30;;;;;;;5.43;46.33;100337.44;108224;1256;72623;-65
2023/12/04 00:42:12;;;;;;;16.90;9.00;;;;;;;5.41;46.24;100335.20;108115;1253;62010;-65
2023/12/04 00:44:39;;;;;;;19.50;9.40;;;;;;;5.46;46.00;100338.27;108139;1256;60205;-67
2023/12/04 00:47:05;;;;;;;18.20;9.40;;;;;;;5.35;46.01;100343.46;108155;1254;74017;-66
2023/12/04 00:49:32;;;;;;;20.40;9.50;;;;;;;5.32;46.25;100346.10;108195;1256;70795;-67
2023/12/04 00:51:59;;;;;;;19.90;10.00;;;;;;;5.30;46.16;100342.47;108235;1256;72641;-65
2023/12/04 00:54:25;;;;;;;21.50;9.10;;;;;;;5.27;46.23;100345.30;108152;1254;60893;-66
2023/12/04 00:56:52;;;;;;;18.20;9.30;;;;;;;5.24;46.24;100343.94;108190;1254;61157;-66
2023/12/04 00:59:19;;;;;;;17.80;9.10;;;;;;;5.19;46.36;100349.55;108233;1254;72996;-66
2023/12/04 01:01:45;;;;;;;17.50;9.50;;;;;;;5.28;46.38;100353.13;108133;1254;70649;-65
2023/12/04 01:04:12;;;;;;;19.70;9.50;;;;;;;5.25;46.36;100352.45;108182;1253;73406;-65
2023/12/04 01:06:39;;;;;;;18.40;9.60;;;;;;;5.20;46.35;100358.95;108111;1253;62222;-66
2023/12/04 01:09:05;;;;;;;18.90;9.50;;;;;;;5.15;46.36;100361.10;108136;1255;60517;-66
2023/12/04 01:11:32;;;;;;;16.30;9.10;;;;;;;5.18;46.42;100358.27;108156;1254;74328;-66
2023/12/04 01:13:59;;;;;;;17.80;9.30;;;;;;;5.11;45.97;100355.56;108021;1254;69489;-65
2023/12/04 01:16:25;;;;;;;17.90;8.60;;;;;;;5.03;46.01;100353.21;108173;1257;73082;-67
2023/12/04 01:18:52;;;;;;;18.90;9.50;;;;;;;5.00;45.73;100356.73;108181;1254;62056;-65
2023/12/04 01:21:19;;;;;;;17.20;9.40;;;;;;;4.94;45.71;100356.11;108186;1255;60386;-65
2023/12/04 01:23:46;;;;;;;18.90;9.20;;;;;;;4.92;45.63;100360.46;108227;1253;72729;-66
2023/12/04 01:26:12;;;;;;;20.60;9.90;;;;;;;4.81;45.78;100363.18;108196;1254;70165;-64
2023/12/04 01:28:39;;;;;;;18.70;9.50;;;;;;;4.71;45.91;100367.63;108188;1254;73254;-66
2023/12/04 01:31:06;;;;;;;16.10;8.50;;;;;;;4.70;45.91;100373.20;108054;1254;61846;-65
2023/12/04 01:33:33;;;;;;;20.00;9.80;;;;;;;4.69;45.98;100380.35;108169;1253;60460;-65
2023/12/04 01:35:59;;;;;;;19.90;9.60;;;;;;;4.67;45.99;100381.05;108246;1254;73695;-65
2023/12/04 01:38:26;;;;;;;19.60;9.30;;;;;;;4.64;46.32;100384.04;108177;1257;70134;-68
2023/12/04 01:40:53;;;;;;;21.10;10.10;;;;;;;4.62;46.55;100388.92;108191;1254;72687;-66
2023/12/04 01:43:20;;;;;;;19.00;9.90;;;;;;;4.74;46.56;100395.44;108113;1253;60777;-66
2023/12/04 01:45:47;;;;;;;20.10;9.80;;;;;;;4.74;46.52;100399.95;108175;1254;60277;-65
2023/12/04 01:48:13;;;;;;;22.70;10.70;;;;;;;4.83;46.62;100403.36;108133;1254;74548;-65
2023/12/04 01:50:40;;;;;;;22.10;10.90;;;;;;;4.84;46.49;100402.12;108157;1254;69689;-66
2023/12/04 01:53:07;;;;;;;18.90;10.80;;;;;;;4.83;46.81;100403.86;108147;1254;72784;-66
2023/12/04 01:55:33;;;;;;;21.50;10.70;;;;;;;4.88;46.76;100407.30;108144;1254;62043;-65
2023/12/04 01:58:01;;;;;;;22.40;10.20;;;;;;;4.90;46.66;100409.90;108074;1254;60368;-64
2023/12/04 02:00:29;;;;;;;20.10;10.50;;;;;;;4.99;46.59;100412.60;108211;1254;74231;-66
2023/12/04 02:02:56;;;;;;;22.20;10.70;;;;;;;4.99;46.61;100416.44;108069;1255;70385;-66
2023/12/04 02:05:23;;;;;;;20.70;10.60;;;;;;;4.62;47.11;100418.31;108217;1254;72741;-65
2023/12/04 02:07:49;;;;;;;18.80;10.60;;;;;;;4.51;47.25;100426.92;108049;1255;60811;-66
2023/12/04 02:10:16;;;;;;;20.20;10.00;;;;;;;4.49;47.03;100425.20;108077;1254;60318;-65
2023/12/04 02:12:43;;;;;;;17.90;9.30;;;;;;;4.47;46.82;100426.42;108149;1255;74241;-64
2023/12/04 02:15:10;;;;;;;23.20;11.70;;;;;;;4.58;46.30;100425.13;108045;1259;67943;-66
2023/12/04 02:17:36;;;;;;;23.10;10.70;;;;;;;4.55;46.18;100430.38;108020;1255;73145;-65
2023/12/04 02:20:05;;;;;;;27.30;11.90;;;;;;;4.51;46.17;100430.75;108196;1254;61987;-64
2023/12/04 02:22:31;;;;;;;17.50;9.50;;;;;;;4.41;46.30;100431.34;108125;1254;60405;-64
2023/12/04 02:25:00;;;;;;;23.60;10.70;;;;;;;4.41;46.53;100430.46;108180;1254;72463;-66
2023/12/04 02:27:28;;;;;;;20.90;10.60;;;;;;;4.41;46.62;100431.34;108193;1254;69554;-66
2023/12/04 02:30:25;;;;;;;19.90;9.90;;;;;;;4.49;46.66;100439.46;108208;1253;71427;-66
2023/12/04 02:32:52;;;;;;;23.00;10.40;;;;;;;4.52;46.91;100441.00;107972;1254;61665;-66
2023/12/04 02:35:23;;;;;;;20.10;10.60;;;;;;;4.58;46.99;100441.12;108173;1254;60303;-65
2023/12/04 02:37:49;;;;;;;20.20;9.50;;;;;;;4.60;47.09;100436.23;108177;1257;73686;-63
2023/12/04 02:40:16;;;;;;;21.30;10.90;;;;;;;4.58;47.23;100439.39;107901;1260;70671;-64
2023/12/04 02:42:44;;;;;;;24.10;11.20;;;;;;;4.48;47.63;100449.20;108142;1256;72913;-63
2023/12/04 02:45:11;;;;;;;19.60;10.10;;;;;;;4.52;47.67;100450.05;108154;1253;61964;-66
2023/12/04 02:47:37;;;;;;;21.90;11.30;;;;;;;4.57;47.66;100451.05;108184;1254;60382;-65
2023/12/04 02:50:05;;;;;;;21.00;10.80;;;;;;;4.63;47.64;100454.14;108202;1254;74073;-66
2023/12/04 02:52:32;;;;;;;22.90;12.20;;;;;;;4.60;47.45;100456.94;108228;1253;70335;-64
2023/12/04 02:54:59;;;;;;;23.70;10.60;;;;;;;4.68;47.12;100454.96;108188;1258;72862;-66
2023/12/04 02:57:25;;;;;;;20.00;10.50;;;;;;;4.63;46.90;100459.00;108137;1254;61767;-66
2023/12/04 02:59:52;;;;;;;24.70;11.80;;;;;;;4.68;46.86;100461.40;108171;1254;60332;-64
2023/12/04 03:02:19;;;;;;;21.50;10.40;;;;;;;4.64;46.89;100459.67;108002;1253;188216;-66
2023/12/04 03:05:52;;;;;;;24.90;11.70;;;;;;;2.89;51.21;100478.04;104706;1292;603314;-66
2023/12/04 03:08:19;;;;;;;24.30;11.90;;;;;;;4.05;48.21;100477.27;107187;1266;59405;-66
2023/12/04 03:10:46;;;;;;;21.10;10.70;;;;;;;4.23;47.68;100478.39;107297;1265;59195;-66
2023/12/04 03:13:12;;;;;;;24.20;12.20;;;;;;;4.24;47.56;100480.64;107313;1265;72551;-66
2023/12/04 03:15:39;;;;;;;24.90;11.60;;;;;;;4.35;47.35;100486.66;107376;1266;70340;-65
2023/12/04 03:18:06;;;;;;;22.60;10.50;;;;;;;4.38;47.09;100493.08;107252;1262;130782;-66
2023/12/04 03:20:35;;;;;;;20.80;10.00;;;;;;;4.41;47.06;100494.61;107467;1262;62081;-63
2023/12/04 03:23:02;;;;;;;26.20;11.60;;;;;;;4.42;46.99;100499.30;107452;1262;60019;-66
2023/12/04 03:25:28;;;;;;;25.10;11.50;;;;;;;4.35;47.12;100499.01;107455;1262;72100;-66
2023/12/04 03:27:55;;;;;;;27.30;13.60;;;;;;;4.18;47.66;100500.83;107927;1256;70976;-65
2023/12/04 03:30:22;;;;;;;24.10;11.90;;;;;;;4.25;47.39;100500.27;107896;1256;73231;-64
2023/12/04 03:32:49;;;;;;;27.40;13.30;;;;;;;4.31;47.15;100503.36;107884;1255;61730;-65
2023/12/04 03:35:15;;;;;;;26.10;13.50;;;;;;;4.35;47.24;100507.88;107804;1256;60154;-66
2023/12/04 03:37:42;;;;;;;25.60;12.50;;;;;;;4.40;47.27;100504.19;107832;1256;73008;-65
2023/12/04 03:40:10;;;;;;;26.80;12.40;;;;;;;4.40;47.36;100507.48;107839;1255;70294;-65
2023/12/04 03:42:36;;;;;;;30.20;13.20;;;;;;;4.25;47.63;100511.40;107869;1256;72620;-64
2023/12/04 03:45:04;;;;;;;21.20;11.20;;;;;;;4.30;47.51;100509.45;107806;1255;62001;-65
2023/12/04 03:47:32;;;;;;;29.10;12.60;;;;;;;4.33;47.54;100513.61;107869;1256;60438;-66
2023/12/04 03:49:59;;;;;;;21.50;11.80;;;;;;;4.33;47.59;100516.05;107849;1255;59366;-66
2023/12/04 03:52:25;;;;;;;27.30;12.90;;;;;;;4.39;47.60;100517.05;107875;1256;71039;-66
2023/12/04 03:54:52;;;;;;;25.50;12.40;;;;;;;4.39;47.50;100517.58;107836;1256;73014;-65
2023/12/04 03:57:19;;;;;;;25.10;12.20;;;;;;;4.31;47.65;100516.94;107886;1255;61973;-65
2023/12/04 03:59:46;;;;;;;20.40;11.00;;;;;;;4.31;47.79;100514.67;107903;1257;59166;-65
2023/12/04 04:02:12;;;;;;;23.00;11.00;;;;;;;4.42;47.52;100516.35;107905;1256;73219;-64
2023/12/04 04:04:39;;;;;;;24.80;12.40;;;;;;;4.53;47.05;100524.80;107793;1256;71117;-64
2023/12/04 04:07:06;;;;;;;25.20;11.30;;;;;;;4.44;46.90;100529.73;107840;1256;73269;-66
2023/12/04 04:09:33;;;;;;;24.30;11.00;;;;;;;4.44;46.71;100529.02;107896;1256;60807;-65
2023/12/04 04:12:00;;;;;;;23.20;11.20;;;;;;;4.39;46.55;100534.09;107728;1256;60277;-65
2023/12/04 04:14:26;;;;;;;22.50;11.70;;;;;;;4.35;46.57;100537.41;107827;1256;73854;-66
2023/12/04 04:16:53;;;;;;;24.50;12.40;;;;;;;4.31;46.59;100542.66;108071;1255;70655;-64
2023/12/04 04:19:20;;;;;;;29.50;12.30;;;;;;;4.21;46.72;100543.22;108033;1256;73065;-62
2023/12/04 04:21:47;;;;;;;22.40;12.10;;;;;;;4.19;46.70;100540.11;108081;1259;62303;-65
2023/12/04 04:24:14;;;;;;;27.20;12.00;;;;;;;4.21;46.53;100539.05;108068;1255;60105;-64
2023/12/04 04:26:40;;;;;;;26.90;12.90;;;;;;;4.03;46.53;100539.82;108021;1256;72814;-67
2023/12/04 04:29:08;;;;;;;24.00;11.50;;;;;;;4.00;46.51;100540.02;108057;1256;70749;-67
2023/12/04 04:31:34;;;;;;;25.80;13.40;;;;;;;3.87;46.77;100540.39;107986;1255;73222;-65
2023/12/04 04:34:01;;;;;;;23.90;11.70;;;;;;;3.81;46.49;100542.67;108016;1255;61923;-66
2023/12/04 04:36:29;;;;;;;27.80;13.10;;;;;;;3.75;46.64;100544.08;108046;1255;60101;-66
2023/12/04 04:38:55;;;;;;;25.60;12.50;;;;;;;3.77;46.57;100541.98;108027;1255;73511;-66
2023/12/04 04:41:22;;;;;;;23.10;10.90;;;;;;;3.68;46.76;100548.79;108050;1256;70844;-66
2023/12/04 04:43:49;;;;;;;24.90;12.60;;;;;;;3.66;46.90;100553.13;108059;1256;73096;-65
2023/12/04 04:46:16;;;;;;;24.30;11.60;;;;;;;3.62;46.77;100551.58;108127;1256;60035;-65
2023/12/04 04:48:42;;;;;;;22.70;11.40;;;;;;;3.58;46.78;100557.13;108074;1255;60421;-67
2023/12/04 04:51:09;;;;;;;24.90;12.20;;;;;;;3.52;46.57;100558.54;108153;1255;73433;-66
2023/12/04 04:53:36;;;;;;;23.00;10.30;;;;;;;3.37;46.79;100559.23;108084;1257;70575;-63
2023/12/04 04:56:03;;;;;;;21.20;11.10;;;;;;;3.13;46.97;100559.59;108094;1256;73296;-67
2023/12/04 04:58:30;;;;;;;21.20;10.60;;;;;;;3.10;47.15;100563.77;108173;1256;60654;-66
2023/12/04 05:00:57;;;;;;;23.30;12.10;;;;;;;3.19;46.79;100565.67;108044;1255;60112;-67
2023/12/04 05:03:23;;;;;;;25.20;11.60;;;;;;;3.15;46.75;100572.09;108128;1256;72861;-68
2023/12/04 05:05:51;;;;;;;23.90;12.20;;;;;;;3.10;46.72;100577.64;107987;1256;70796;-66
2023/12/04 05:08:18;;;;;;;28.00;14.00;;;;;;;3.06;46.97;100581.63;107646;1255;72470;-65
2023/12/04 05:10:45;;;;;;;33.70;14.30;;;;;;;3.11;46.91;100592.20;107939;1255;60688;-66
2023/12/04 05:13:11;;;;;;;37.80;16.10;;;;;;;3.07;47.32;100595.86;107933;1255;60194;-66
2023/12/04 05:15:38;;;;;;;38.30;16.80;;;;;;;3.05;47.64;100600.02;107984;1255;73777;-66
2023/12/04 05:18:05;;;;;;;35.80;16.20;;;;;;;3.13;48.07;100609.23;108004;1256;70807;-66
2023/12/04 05:20:32;;;;;;;39.90;17.20;;;;;;;3.22;48.31;100612.35;107925;1256;73103;-67
2023/12/04 05:22:58;;;;;;;37.00;16.40;;;;;;;3.30;48.48;100618.42;107964;1256;61809;-64
2023/12/04 05:25:25;;;;;;;41.60;18.10;;;;;;;3.42;48.54;100627.11;107989;1255;60027;-65
2023/12/04 05:27:58;;;;;;;59.40;23.80;;;;;;;3.40;48.72;100632.14;107991;1255;73103;-66
2023/12/04 05:30:24;;;;;;;53.50;22.70;;;;;;;3.36;48.92;100632.65;108095;1255;70838;-64
2023/12/04 05:32:51;;;;;;;52.20;21.80;;;;;;;3.39;48.93;100633.88;108053;1256;72707;-65
2023/12/04 05:35:18;;;;;;;45.20;20.10;;;;;;;3.34;49.08;100634.92;107957;1256;61821;-64
2023/12/04 05:37:45;;;;;;;40.50;18.00;;;;;;;3.49;49.03;100636.82;108015;1256;59492;-65
2023/12/04 05:40:12;;;;;;;51.60;21.90;;;;;;;3.50;49.00;100637.70;107996;1255;73433;-65
2023/12/04 05:42:39;;;;;;;37.00;18.20;;;;;;;3.52;49.09;100649.34;107977;1256;68927;-66
2023/12/04 05:45:07;;;;;;;42.50;20.50;;;;;;;3.48;49.29;100647.77;108033;1256;73157;-67
2023/12/04 05:47:34;;;;;;;40.20;18.30;;;;;;;3.70;48.97;100650.54;108016;1256;60015;-66
2023/12/04 05:50:01;;;;;;;39.50;18.50;;;;;;;3.76;48.74;100649.14;107857;1256;60105;-67
2023/12/04 05:52:28;;;;;;;43.60;19.80;;;;;;;3.72;49.09;100648.11;108013;1259;72898;-67
2023/12/04 05:54:55;;;;;;;38.10;17.20;;;;;;;3.77;49.08;100650.52;108073;1255;68677;-66
2023/12/04 05:57:21;;;;;;;38.00;17.40;;;;;;;3.90;49.06;100648.79;107983;1256;71458;-66
2023/12/04 05:59:48;;;;;;;36.40;18.40;;;;;;;3.96;48.81;100646.70;108082;1256;59144;-65
2023/12/04 06:02:15;;;;;;;32.80;16.60;;;;;;;3.64;49.45;100642.91;107931;1256;60203;-65
2023/12/04 06:04:41;;;;;;;40.50;18.20;;;;;;;3.85;49.32;100646.36;107893;1256;72943;-66
2023/12/04 06:07:08;;;;;;;31.60;15.80;;;;;;;4.05;49.01;100643.20;108027;1254;71156;-63
2023/12/04 06:09:36;;;;;;;35.50;15.40;;;;;;;4.05;49.05;100642.34;108030;1254;72675;-65
2023/12/04 06:12:08;;;;;;;34.00;16.90;;;;;;;4.15;49.01;100646.48;108029;1254;62453;-64
2023/12/04 06:14:34;;;;;;;34.90;15.30;;;;;;;4.25;48.95;100644.89;108136;1254;60182;-64
2023/12/04 06:17:02;;;;;;;31.30;15.70;;;;;;;4.35;48.76;100647.98;108046;1254;72131;-66
2023/12/04 06:19:31;;;;;;;32.10;16.00;;;;;;;4.42;48.66;100641.88;108078;1254;71348;-66
2023/12/04 06:21:58;;;;;;;33.20;15.90;;;;;;;4.49;48.58;100640.13;108079;1253;73044;-66
2023/12/04 06:24:26;;;;;;;34.50;16.00;;;;;;;4.67;48.08;100639.68;108084;1254;62453;-65
2023/12/04 06:26:53;;;;;;;39.00;17.90;;;;;;;4.68;48.43;100640.20;108041;1253;59640;-66
2023/12/04 06:29:20;;;;;;;38.60;17.50;;;;;;;4.78;48.38;100644.32;108094;1256;72817;-66
2023/12/04 06:31:48;;;;;;;38.90;17.30;;;;;;;4.73;48.35;100646.95;108078;1254;70750;-66
2023/12/04 06:34:15;;;;;;;35.70;18.00;;;;;;;4.68;48.36;100651.16;108052;1254;71655;-64
2023/12/04 06:36:43;;;;;;;41.50;18.10;;;;;;;4.74;48.40;100655.83;108076;1254;61615;-66
2023/12/04 06:39:11;;;;;;;38.40;16.90;;;;;;;4.73;48.55;100656.52;108077;1254;59625;-66
2023/12/04 06:41:39;;;;;;;42.60;18.60;;;;;;;4.85;48.62;100657.68;108130;1254;73424;-65
2023/12/04 06:44:07;;;;;;;40.50;18.80;;;;;;;5.08;48.27;100657.56;108085;1257;70127;-66
2023/12/04 06:46:37;;;;;;;38.20;17.50;;;;;;;5.20;47.69;100655.92;108051;1254;72491;-66
2023/12/04 06:49:07;;;;;;;52.00;18.40;;;;;;;5.15;48.03;100652.47;108089;1254;61802;-67
2023/12/04 06:51:34;;;;;;;57.30;20.80;;;;;;;5.34;47.83;100652.50;108072;1254;61213;-67
2023/12/04 06:54:00;;;;;;;46.40;19.10;;;;;;;5.37;47.88;100654.92;108016;1254;73021;-67
2023/12/04 06:56:27;;;;;;;45.20;21.20;;;;;;;5.39;47.77;100651.43;108082;1254;70820;-65
2023/12/04 06:58:53;;;;;;;41.70;19.20;;;;;;;5.40;47.79;100655.43;108019;1254;72851;-65
2023/12/04 07:01:21;;;;;;;38.50;18.50;;;;;;;5.39;47.75;100658.92;108039;1253;61869;-64
2023/12/04 07:03:48;;;;;;;48.80;20.40;;;;;;;5.36;47.86;100657.03;108106;1253;60002;-65
2023/12/04 07:06:15;;;;;;;43.00;19.70;;;;;;;5.35;47.71;100662.44;108094;1255;73046;-66
2023/12/04 07:08:42;;;;;;;36.70;17.10;;;;;;;5.35;47.69;100667.48;108111;1253;70480;-65
2023/12/04 07:11:09;;;;;;;42.60;18.00;;;;;;;5.37;47.65;100665.38;108125;1253;73135;-66
2023/12/04 07:13:36;;;;;;;41.40;18.00;;;;;;;5.43;47.37;100664.65;108121;1253;60896;-65
2023/12/04 07:16:03;;;;;;;41.00;18.30;;;;;;;5.55;47.37;100665.41;108165;1253;60342;-66
2023/12/04 07:18:30;;;;;;;36.20;16.20;;;;;;;5.58;47.64;100666.96;108166;1253;73851;-66
2023/12/04 07:20:57;;;;;;;40.80;17.30;;;;;;;5.70;47.80;100668.25;108096;1253;70273;-66
2023/12/04 07:23:24;;;;;;;43.90;17.40;;;;;;;5.75;47.73;100669.09;108121;1253;72613;-65
2023/12/04 07:25:54;;;;;;;46.00;18.60;;;;;;;5.78;47.75;100671.16;108018;1253;62280;-65
2023/12/04 07:28:20;;;;;;;48.70;20.70;;;;;;;5.66;48.40;100676.65;108099;1253;60227;-66
2023/12/04 07:30:47;;;;;;;47.70;19.50;;;;;;;5.86;48.10;100671.25;108158;1255;74209;-65
2023/12/04 07:33:14;;;;;;;45.00;18.30;;;;;;;5.99;47.95;100670.30;108154;1253;70864;-65
2023/12/04 07:35:41;;;;;;;49.40;22.00;;;;;;;6.06;47.87;100664.65;108170;1253;72337;-65
2023/12/04 07:38:07;;;;;;;48.90;19.80;;;;;;;6.17;47.85;100665.77;108118;1253;61714;-65
2023/12/04 07:40:34;;;;;;;56.40;23.20;;;;;;;6.32;47.79;100661.41;108024;1253;60178;-66
2023/12/04 07:43:02;;;;;;;54.40;21.40;;;;;;;6.31;47.54;100664.55;108089;1253;74299;-66
2023/12/04 07:45:29;;;;;;;50.60;21.60;;;;;;;6.39;47.36;100668.84;108140;1253;70735;-66
2023/12/04 07:47:55;;;;;;;50.10;21.20;;;;;;;6.44;47.63;100672.43;108117;1253;71926;-65
2023/12/04 07:50:23;;;;;;;45.10;19.30;;;;;;;6.52;47.56;100674.79;108167;1256;61771;-66
2023/12/04 07:52:50;;;;;;;50.80;20.20;;;;;;;6.38;47.80;100676.17;108109;1253;60338;-61
2023/12/04 07:55:17;;;;;;;49.90;21.40;;;;;;;6.37;48.01;100678.63;108082;1253;74288;-64
2023/12/04 07:57:47;;;;;;;47.40;20.40;;;;;;;6.49;47.52;100680.23;108092;1252;70150;-66
2023/12/04 08:00:14;;;;;;;53.20;23.30;;;;;;;6.54;47.45;100682.80;108068;1253;72683;-66
2023/12/04 08:02:44;;;;;;;48.10;20.10;;;;;;;6.56;47.63;100679.11;108136;1254;60307;-67
2023/12/04 08:05:12;;;;;;;57.70;22.00;;;;;;;6.77;47.13;100682.35;108086;1254;60356;-69
2023/12/04 08:07:40;;;;;;;49.70;21.80;;;;;;;6.75;47.16;100681.83;108013;1254;72386;-66
2023/12/04 08:10:08;;;;;;;54.00;21.00;;;;;;;7.03;46.33;100686.38;108062;1254;70711;-66
2023/12/04 08:12:35;;;;;;;53.00;22.20;;;;;;;7.04;46.42;100690.02;107977;1254;72457;-65
2023/12/04 08:15:03;;;;;;;52.00;22.40;;;;;;;7.09;46.38;100693.45;108082;1254;61199;-66
2023/12/04 08:17:30;;;;;;;49.30;21.40;;;;;;;7.07;46.21;100694.35;108160;1254;60352;-66
2023/12/04 08:19:57;;;;;;;44.70;19.50;;;;;;;7.19;46.29;100697.33;108055;1257;72328;-66
2023/12/04 08:22:24;;;;;;;43.80;19.70;;;;;;;7.05;46.29;100699.44;108104;1254;70362;-65
2023/12/04 08:24:52;;;;;;;46.00;20.20;;;;;;;6.87;46.40;100706.98;108106;1254;71269;-66
2023/12/04 08:27:19;;;;;;;49.60;22.90;;;;;;;7.08;46.43;100707.06;108077;1254;60971;-66
2023/12/04 08:29:46;;;;;;;46.50;19.40;;;;;;;7.37;45.85;100707.53;108106;1254;60572;-66
2023/12/04 08:32:12;;;;;;;48.40;21.00;;;;;;;7.60;45.67;100710.70;108211;1254;74411;-66
2023/12/04 08:34:39;;;;;;;45.50;19.90;;;;;;;7.64;45.39;100707.48;108148;1254;71100;-67
2023/12/04 08:37:06;;;;;;;47.40;20.30;;;;;;;7.57;45.21;100712.84;108073;1255;71265;-66
2023/12/04 08:39:33;;;;;;;49.10;21.20;;;;;;;7.43;45.21;100713.05;108067;1254;61179;-66
2023/12/04 08:42:00;;;;;;;40.50;19.00;;;;;;;7.37;45.00;100713.48;108087;1254;60313;-66
2023/12/04 08:44:34;;;;;;;51.80;22.30;;;;;;;7.34;45.07;100711.60;108023;1254;74591;-65
2023/12/04 08:47:01;;;;;;;40.40;19.30;;;;;;;7.46;44.86;100710.38;108082;1254;68919;-63
2023/12/04 08:49:28;;;;;;;39.80;18.30;;;;;;;7.46;44.63;100706.54;108089;1254;73104;-67
2023/12/04 08:52:09;;;;;;;46.60;18.70;;;;;;;7.48;44.49;100699.17;108118;1254;61207;-67
2023/12/04 08:54:41;;;;;;;47.10;17.90;;;;;;;7.48;44.56;100694.45;108117;1254;60230;-67
2023/12/04 08:57:08;;;;;;;47.10;19.20;;;;;;;7.48;44.46;100695.15;108069;1254;74308;-66
2023/12/04 08:59:35;;;;;;;41.60;17.30;;;;;;;7.66;44.32;100688.23;108097;1254;70643;-67
2023/12/04 09:02:03;;;;;;;35.10;15.00;;;;;;;7.66;44.50;100682.98;108057;1253;73297;-66
2023/12/04 09:04:31;;;;;;;43.10;17.30;;;;;;;7.72;44.62;100682.18;108200;1253;61391;-66
2023/12/04 09:06:59;;;;;;;35.70;15.90;;;;;;;7.69;44.24;100683.45;108110;1253;60383;-66
2023/12/04 09:09:28;;;;;;;41.00;17.10;;;;;;;7.77;44.26;100679.48;108139;1253;72508;-65
2023/12/04 09:11:56;;;;;;;39.50;16.80;;;;;;;7.85;43.80;100682.33;108370;1253;69636;-67
2023/12/04 09:14:23;;;;;;;35.00;16.40;;;;;;;7.74;43.58;100681.45;108192;1253;72649;-65
2023/12/04 09:16:50;;;;;;;36.20;16.50;;;;;;;7.81;43.34;100677.67;108189;1253;62429;-66
2023/12/04 09:19:16;;;;;;;40.90;18.00;;;;;;;7.86;43.16;100681.79;108218;1253;60451;-66
2023/12/04 09:21:44;;;;;;;41.60;18.60;;;;;;;7.82;43.22;100682.37;108207;1254;72013;-66
2023/12/04 09:24:11;;;;;;;40.90;17.80;;;;;;;7.98;43.29;100687.17;108166;1253;69159;-67
2023/12/04 09:26:38;;;;;;;38.50;17.10;;;;;;;8.07;43.05;100684.56;108186;1257;72554;-66
2023/12/04 09:29:05;;;;;;;37.10;18.00;;;;;;;7.95;43.10;100680.76;108168;1253;61121;-67
2023/12/04 09:31:31;;;;;;;39.60;19.50;;;;;;;7.74;43.62;100678.82;108185;1253;60310;-66
2023/12/04 09:33:58;;;;;;;35.70;15.60;;;;;;;7.96;43.27;100674.09;108211;1253;73561;-66
2023/12/04 09:36:25;;;;;;;37.30;19.00;;;;;;;7.90;43.30;100680.14;108295;1253;71509;-68
2023/12/04 09:38:52;;;;;;;39.10;17.60;;;;;;;7.91;43.12;100681.88;108240;1255;71569;-66
2023/12/04 09:41:19;;;;;;;41.30;18.60;;;;;;;7.85;43.14;100684.24;108232;1253;60888;-66
2023/12/04 09:43:46;;;;;;;44.00;20.40;;;;;;;7.88;43.03;100679.99;108058;1253;60403;-66
2023/12/04 09:46:12;;;;;;;45.80;20.50;;;;;;;7.80;43.15;100680.84;108294;1253;73595;-66
2023/12/04 09:48:41;;;;;;;53.20;22.90;;;;;;;7.85;43.38;100676.23;108051;1253;70535;-66
2023/12/04 09:51:08;;;;;;;42.60;21.00;;;;;;;7.81;43.32;100681.52;108223;1251;72640;-66
2023/12/04 09:53:35;;;;;;;45.30;19.80;;;;;;;7.78;43.37;100681.58;108392;1253;60478;-67
2023/12/04 09:56:07;;;;;;;48.10;21.50;;;;;;;7.88;43.48;100680.70;108201;1253;60420;-66
2023/12/04 09:58:34;;;;;;;62.20;22.30;;;;;;;7.81;43.34;100685.73;108289;1253;72669;-66
2023/12/04 10:01:01;;;;;;;56.40;22.30;;;;;;;7.52;43.78;100688.81;108132;1253;70425;-66
2023/12/04 10:03:29;;;;;;;52.70;22.00;;;;;;;7.51;43.93;100689.15;108249;1253;71763;-66
2023/12/04 10:05:56;;;;;;;50.60;21.40;;;;;;;7.66;43.78;100688.41;108249;1252;60444;-66
2023/12/04 10:08:23;;;;;;;72.20;25.40;;;;;;;7.57;43.96;100684.52;108209;1253;60460;-66
2023/12/04 10:10:49;;;;;;;66.60;23.20;;;;;;;7.64;43.78;100682.31;108229;1253;74224;-66
2023/12/04 10:13:16;;;;;;;58.70;23.00;;;;;;;7.68;44.01;100677.36;108093;1258;70398;-65
2023/12/04 10:16:04;;;;;;;65.30;25.50;;;;;;;7.46;44.31;100676.48;108218;1252;72859;-66
2023/12/04 10:18:31;;;;;;;48.70;20.20;;;;;;;7.39;44.31;100677.65;108256;1253;60460;-65
2023/12/04 10:20:58;;;;;;;53.80;22.80;;;;;;;7.21;44.73;100682.46;108274;1253;60397;-66
2023/12/04 10:23:39;;;;;;;54.60;23.50;;;;;;;7.16;45.17;100683.91;108056;1253;73864;-65
2023/12/04 10:26:07;;;;;;;52.50;23.20;;;;;;;7.12;45.10;100687.64;108236;1253;70624;-66
2023/12/04 10:28:34;;;;;;;61.90;23.90;;;;;;;7.16;44.95;100683.92;108174;1252;72476;-66
2023/12/04 10:31:01;;;;;;;51.70;23.50;;;;;;;7.50;44.46;100684.81;108251;1253;60484;-66
2023/12/04 10:33:30;;;;;;;55.80;18.50;;;;;;;7.44;44.28;100684.05;108276;1253;60275;-66
2023/12/04 10:35:57;;;;;;;44.70;19.60;;;;;;;7.08;44.39;100681.94;108341;1253;73945;-67
2023/12/04 10:38:26;;;;;;;49.50;19.60;;;;;;;6.97;44.10;100683.82;108259;1253;70715;-66
2023/12/04 10:40:52;;;;;;;34.00;15.60;;;;;;;6.77;43.10;100685.65;108192;1253;72545;-66
2023/12/04 10:43:23;;;;;;;31.40;14.60;;;;;;;6.96;42.80;100682.62;108260;1253;61100;-66
2023/12/04 10:45:51;;;;;;;38.00;14.70;;;;;;;6.98;42.17;100688.19;108231;1253;60444;-67
2023/12/04 10:48:18;;;;;;;54.40;14.60;;;;;;;6.99;42.07;100688.67;108186;1253;74090;-66
2023/12/04 10:50:47;;;;;;;44.20;14.40;;;;;;;7.35;41.93;100689.23;108260;1255;68898;-62
2023/12/04 10:53:14;;;;;;;33.20;12.50;;;;;;;7.45;40.80;100691.70;108177;1253;73353;-66
2023/12/04 10:55:41;;;;;;;26.90;11.10;;;;;;;7.63;40.04;100690.55;108185;1253;60296;-66
2023/12/04 10:58:10;;;;;;;21.80;10.20;;;;;;;7.83;39.47;100685.33;108264;1253;60406;-65
2023/12/04 11:00:54;;;;;;;20.00;10.90;;;;;;;7.97;38.47;100690.00;108198;1253;73659;-66
2023/12/04 11:03:28;;;;;;;14.20;7.70;;;;;;;7.87;38.24;100686.84;108010;1253;70281;-67
2023/12/04 11:05:56;;;;;;;13.40;7.40;;;;;;;7.43;38.00;100688.59;108008;1253;72664;-66
2023/12/04 11:08:23;;;;;;;14.50;7.80;;;;;;;7.40;38.37;100688.27;107964;1253;62344;-66
2023/12/04 11:10:58;;;;;;;14.90;7.60;;;;;;;7.09;38.31;100692.39;108158;1253;60441;-65